createdAt,value
2016-07-23T00:00:26.335Z,23.06
2016-07-23T00:01:26.321Z,22.99
2016-07-23T00:02:26.310Z,23.11
2016-07-23T00:03:26.311Z,23.03
2016-07-23T00:04:26.272Z,23.04
2016-07-23T00:05:26.274Z,23.01
2016-07-23T00:06:26.250Z,23.11
2016-07-23T00:07:26.237Z,23.01
2016-07-23T00:08:25.523Z,23
2016-07-23T00:09:26.214Z,22.72
2016-07-23T00:10:26.197Z,22.61
2016-07-23T00:11:26.185Z,22.63
2016-07-23T00:12:26.166Z,22.57
2016-07-23T00:13:26.149Z,22.79
2016-07-23T00:14:26.142Z,23.12
2016-07-23T00:15:26.132Z,23.12
2016-07-23T00:16:26.105Z,22.97
2016-07-23T00:17:26.095Z,22.91
2016-07-23T00:18:26.079Z,23.07
2016-07-23T00:19:25.348Z,23.11
2016-07-23T00:20:26.056Z,23.19
2016-07-23T00:21:26.036Z,23.31
2016-07-23T00:22:26.026Z,23.41
2016-07-23T00:23:25.999Z,23.44
2016-07-23T00:24:25.984Z,23.34
2016-07-23T00:25:25.975Z,23.38
2016-07-23T00:26:25.958Z,23.31
2016-07-23T00:27:25.943Z,23.21
2016-07-23T00:28:25.927Z,23.18
2016-07-23T00:29:25.914Z,23.25
2016-07-23T00:30:25.901Z,23.32
2016-07-23T00:31:25.881Z,23.21
2016-07-23T00:32:25.875Z,23.35
2016-07-23T00:33:25.852Z,23.29
2016-07-23T00:34:25.842Z,23.32
2016-07-23T00:35:25.828Z,23.31
2016-07-23T00:36:25.817Z,23.19
2016-07-23T00:37:25.803Z,23.15
2016-07-23T00:38:25.790Z,23.11
2016-07-23T00:39:25.768Z,23.31
2016-07-23T00:40:25.763Z,23.22
2016-07-23T00:41:25.735Z,23.16
2016-07-23T00:42:25.018Z,23.16
2016-07-23T00:43:25.708Z,23.16
2016-07-23T00:44:25.689Z,23.11
2016-07-23T00:45:25.679Z,23.09
2016-07-23T00:46:25.666Z,23.12
2016-07-23T00:47:25.653Z,23.16
2016-07-23T00:48:25.640Z,23.09
2016-07-23T00:49:25.630Z,22.97
2016-07-23T00:50:25.606Z,23.12
2016-07-23T00:51:25.601Z,22.94
2016-07-23T00:52:25.581Z,23.06
2016-07-23T00:53:25.569Z,23.09
2016-07-23T00:54:25.543Z,23.07
2016-07-23T00:55:25.533Z,23.12
2016-07-23T00:56:24.803Z,23.15
2016-07-23T00:57:25.496Z,23.07
2016-07-23T00:58:25.490Z,23.11
2016-07-23T00:59:24.758Z,23.03
2016-07-23T01:00:25.463Z,23.03
2016-07-23T01:01:25.451Z,23.03
2016-07-23T01:02:24.720Z,23.11
2016-07-23T01:03:25.414Z,23.14
2016-07-23T01:04:25.393Z,23.09
2016-07-23T01:05:25.379Z,23.04
2016-07-23T01:06:25.366Z,23.04
2016-07-23T01:07:25.349Z,23.12
2016-07-23T01:08:25.343Z,22.94
2016-07-23T01:09:25.332Z,23.01
2016-07-23T01:10:25.308Z,23.01
2016-07-23T01:11:25.300Z,23.11
2016-07-23T01:12:25.281Z,22.99
2016-07-23T01:13:25.263Z,23.01
2016-07-23T01:14:25.250Z,23.04
2016-07-23T01:15:25.232Z,22.99
2016-07-23T01:16:25.216Z,23.03
2016-07-23T01:17:25.207Z,22.91
2016-07-23T01:18:25.194Z,23.03
2016-07-23T01:19:25.176Z,23.04
2016-07-23T01:20:25.159Z,23.07
2016-07-23T01:21:25.147Z,23.15
2016-07-23T01:22:25.133Z,23.07
2016-07-23T01:23:24.410Z,22.82
2016-07-23T01:24:25.112Z,22.56
2016-07-23T01:25:25.092Z,22.61
2016-07-23T01:26:25.065Z,22.76
2016-07-23T01:27:25.052Z,22.74
2016-07-23T01:28:25.039Z,22.52
2016-07-23T01:29:24.324Z,22.59
2016-07-23T01:30:25.015Z,22.49
2016-07-23T01:31:24.296Z,22.56
2016-07-23T01:32:24.983Z,22.57
2016-07-23T01:33:24.972Z,22.48
2016-07-23T01:34:24.947Z,22.49
2016-07-23T01:35:24.937Z,22.59
2016-07-23T01:36:24.922Z,22.75
2016-07-23T01:37:24.910Z,22.93
2016-07-23T01:38:24.892Z,22.84
2016-07-23T01:39:24.877Z,22.84
2016-07-23T01:40:24.159Z,22.7
2016-07-23T01:41:24.847Z,22.66
2016-07-23T01:42:24.826Z,22.67
2016-07-23T01:43:24.813Z,22.54
2016-07-23T01:44:24.805Z,22.41
2016-07-23T01:45:24.794Z,22.49
2016-07-23T01:46:24.055Z,22.45
2016-07-23T01:47:24.767Z,22.48
2016-07-23T01:48:24.748Z,22.38
2016-07-23T01:49:24.746Z,22.48
2016-07-23T01:50:23.653Z,22.21
2016-07-23T01:51:24.697Z,22.21
2016-07-23T01:52:24.683Z,22.38
2016-07-23T01:53:24.659Z,22.41
2016-07-23T01:54:23.943Z,22.6
2016-07-23T01:55:24.644Z,22.61
2016-07-23T01:56:24.644Z,22.79
2016-07-23T01:57:24.614Z,22.81
2016-07-23T01:58:24.587Z,22.54
2016-07-23T01:59:24.573Z,22.6
2016-07-23T02:00:24.561Z,22.75
2016-07-23T02:01:24.549Z,22.86
2016-07-23T02:02:23.823Z,22.99
2016-07-23T02:03:24.526Z,23.03
2016-07-23T02:04:24.509Z,22.99
2016-07-23T02:05:24.489Z,22.99
2016-07-23T02:06:24.470Z,22.89
2016-07-23T02:07:24.465Z,22.82
2016-07-23T02:08:24.443Z,22.93
2016-07-23T02:09:24.427Z,22.88
2016-07-23T02:10:24.412Z,22.99
2016-07-23T02:11:24.393Z,22.93
2016-07-23T02:12:24.383Z,22.99
2016-07-23T02:13:24.363Z,23.01
2016-07-23T02:14:24.353Z,22.93
2016-07-23T02:15:24.334Z,23
2016-07-23T02:16:24.321Z,23.04
2016-07-23T02:17:24.325Z,22.96
2016-07-23T02:18:24.298Z,22.99
2016-07-23T02:19:23.569Z,22.69
2016-07-23T02:20:24.261Z,22.64
2016-07-23T02:21:24.256Z,22.7
2016-07-23T02:22:24.243Z,22.63
2016-07-23T02:23:24.212Z,22.56
2016-07-23T02:24:24.206Z,22.57
2016-07-23T02:25:24.187Z,22.36
2016-07-23T02:26:24.329Z,22.3
2016-07-23T02:27:24.156Z,22.35
2016-07-23T02:28:24.147Z,22.46
2016-07-23T02:29:24.124Z,22.38
2016-07-23T02:30:24.109Z,22.36
2016-07-23T02:31:24.086Z,22.29
2016-07-23T02:32:24.081Z,22.26
2016-07-23T02:33:24.066Z,22.24
2016-07-23T02:34:24.053Z,22.31
2016-07-23T02:35:24.032Z,22.3
2016-07-23T02:36:24.022Z,22.24
2016-07-23T02:37:24.014Z,22.3
2016-07-23T02:38:23.992Z,22.09
2016-07-23T02:39:23.977Z,22.08
2016-07-23T02:40:23.956Z,22.36
2016-07-23T02:41:23.944Z,22.12
2016-07-23T02:42:23.926Z,22.21
2016-07-23T02:43:23.927Z,22.12
2016-07-23T02:44:23.902Z,22.19
2016-07-23T02:45:23.884Z,22.19
2016-07-23T02:46:23.874Z,22.15
2016-07-23T02:47:23.865Z,22.08
2016-07-23T02:48:23.841Z,22.02
2016-07-23T02:49:23.116Z,21.98
2016-07-23T02:50:23.809Z,22.01
2016-07-23T02:51:23.801Z,21.9
2016-07-23T02:52:23.777Z,22.19
2016-07-23T02:53:23.765Z,21.99
2016-07-23T02:54:23.748Z,22.08
2016-07-23T02:55:23.732Z,22.11
2016-07-23T02:56:23.720Z,22.21
2016-07-23T02:57:23.698Z,22.17
2016-07-23T02:58:23.688Z,22.11
2016-07-23T02:59:23.672Z,22.14
2016-07-23T03:00:22.943Z,22.12
2016-07-23T03:01:23.643Z,22.04
2016-07-23T03:02:23.630Z,22.06
2016-07-23T03:03:22.900Z,22.06
2016-07-23T03:04:23.589Z,22.15
2016-07-23T03:05:23.588Z,22.12
2016-07-23T03:06:23.568Z,22.36
2016-07-23T03:07:23.554Z,22.27
2016-07-23T03:08:23.541Z,22.19
2016-07-23T03:09:22.812Z,22.24
2016-07-23T03:10:23.510Z,22.2
2016-07-23T03:11:23.486Z,22.3
2016-07-23T03:12:23.472Z,22.36
2016-07-23T03:13:23.454Z,22.45
2016-07-23T03:14:23.446Z,22.36
2016-07-23T03:15:23.423Z,22.15
2016-07-23T03:16:23.408Z,22.11
2016-07-23T03:17:23.408Z,22.31
2016-07-23T03:18:23.386Z,21.94
2016-07-23T03:19:23.367Z,22.02
2016-07-23T03:20:23.359Z,22.11
2016-07-23T03:21:22.623Z,22.21
2016-07-23T03:22:22.618Z,22.23
2016-07-23T03:23:23.302Z,22.48
2016-07-23T03:24:23.283Z,22.6
2016-07-23T03:25:23.271Z,22.6
2016-07-23T03:26:23.301Z,22.56
2016-07-23T03:27:23.249Z,22.64
2016-07-23T03:28:23.226Z,22.48
2016-07-23T03:29:22.507Z,22.59
2016-07-23T03:30:23.193Z,22.54
2016-07-23T03:31:22.472Z,22.57
2016-07-23T03:32:23.161Z,22.64
2016-07-23T03:33:23.171Z,22.59
2016-07-23T03:34:23.137Z,22.54
2016-07-23T03:35:23.126Z,22.23
2016-07-23T03:36:23.102Z,22.35
2016-07-23T03:37:23.089Z,22.41
2016-07-23T03:38:23.076Z,22.48
2016-07-23T03:39:23.062Z,22.46
2016-07-23T03:40:23.046Z,22.29
2016-07-23T03:41:23.030Z,22.17
2016-07-23T03:42:23.014Z,22.23
2016-07-23T03:43:23.006Z,22.38
2016-07-23T03:44:22.983Z,22.39
2016-07-23T03:45:22.976Z,22.54
2016-07-23T03:46:22.950Z,22.48
2016-07-23T03:47:22.937Z,22.59
2016-07-23T03:48:22.922Z,22.56
2016-07-23T03:49:22.911Z,22.59
2016-07-23T03:50:22.887Z,22.52
2016-07-23T03:51:22.174Z,22.49
2016-07-23T03:52:22.865Z,22.44
2016-07-23T03:53:22.853Z,22.56
2016-07-23T03:54:22.833Z,22.54
2016-07-23T03:55:22.813Z,22.45
2016-07-23T03:56:22.797Z,22.44
2016-07-23T03:57:22.790Z,22.45
2016-07-23T03:58:22.775Z,22.48
2016-07-23T03:59:22.751Z,22.48
2016-07-23T04:00:22.739Z,22.52
2016-07-23T04:01:22.023Z,22.57
2016-07-23T04:02:22.704Z,22.52
2016-07-23T04:03:22.695Z,22.54
2016-07-23T04:04:22.674Z,22.44
2016-07-23T04:05:22.671Z,22.49
2016-07-23T04:06:22.654Z,22.49
2016-07-23T04:07:21.937Z,22.49
2016-07-23T04:08:21.909Z,22.59
2016-07-23T04:09:22.603Z,22.6
2016-07-23T04:10:22.592Z,22.51
2016-07-23T04:11:22.586Z,22.45
2016-07-23T04:12:22.559Z,22.45
2016-07-23T04:13:22.550Z,22.56
2016-07-23T04:14:22.535Z,22.44
2016-07-23T04:15:21.801Z,22.54
2016-07-23T04:16:22.495Z,22.54
2016-07-23T04:17:22.477Z,22.45
2016-07-23T04:18:21.749Z,22.48
2016-07-23T04:19:22.462Z,22.51
2016-07-23T04:20:21.729Z,22.39
2016-07-23T04:21:22.420Z,22.41
2016-07-23T04:22:22.404Z,22.41
2016-07-23T04:23:22.387Z,22.33
2016-07-23T04:24:22.383Z,22.35
2016-07-23T04:25:22.366Z,22.26
2016-07-23T04:26:22.353Z,22.44
2016-07-23T04:27:22.329Z,22.44
2016-07-23T04:28:22.315Z,22.59
2016-07-23T04:29:22.294Z,22.49
2016-07-23T04:30:22.283Z,22.59
2016-07-23T04:31:22.263Z,22.45
2016-07-23T04:32:22.257Z,22.45
2016-07-23T04:33:22.235Z,22.49
2016-07-23T04:34:22.228Z,22.6
2016-07-23T04:35:22.202Z,22.57
2016-07-23T04:36:22.191Z,22.31
2016-07-23T04:37:22.187Z,22.33
2016-07-23T04:38:22.162Z,22.44
2016-07-23T04:39:22.154Z,22.45
2016-07-23T04:40:22.126Z,22.52
2016-07-23T04:41:22.113Z,22.69
2016-07-23T04:42:22.105Z,22.85
2016-07-23T04:43:22.081Z,22.86
2016-07-23T04:44:22.066Z,22.99
2016-07-23T04:45:21.343Z,22.97
2016-07-23T04:46:22.032Z,22.96
2016-07-23T04:47:21.314Z,23.12
2016-07-23T04:48:22.013Z,23.07
2016-07-23T04:49:21.992Z,23.14
2016-07-23T04:50:21.981Z,23.07
2016-07-23T04:51:21.262Z,23.06
2016-07-23T04:52:21.944Z,23.16
2016-07-23T04:53:21.951Z,23.18
2016-07-23T04:54:21.921Z,23.16
2016-07-23T04:55:21.901Z,23.16
2016-07-23T04:56:21.177Z,23.16
2016-07-23T04:57:21.161Z,23.23
2016-07-23T04:58:21.149Z,23.29
2016-07-23T04:59:21.842Z,23.19
2016-07-23T05:00:21.820Z,23.29
2016-07-23T05:01:21.813Z,23.32
2016-07-23T05:02:21.796Z,23.34
2016-07-23T05:03:21.779Z,23.38
2016-07-23T05:04:21.758Z,23.35
2016-07-23T05:05:21.049Z,23.39
2016-07-23T05:06:21.731Z,23.42
2016-07-23T05:07:21.723Z,23.38
2016-07-23T05:08:21.708Z,23.42
2016-07-23T05:09:21.694Z,23.39
2016-07-23T05:10:21.667Z,23.45
2016-07-23T05:11:21.661Z,23.39
2016-07-23T05:12:21.640Z,23.41
2016-07-23T05:13:20.926Z,23.45
2016-07-23T05:14:21.628Z,23.44
2016-07-23T05:15:21.598Z,23.45
2016-07-23T05:16:21.579Z,23.53
2016-07-23T05:17:21.571Z,23.5
2016-07-23T05:18:21.550Z,23.44
2016-07-23T05:19:21.540Z,23.45
2016-07-23T05:20:21.533Z,23.52
2016-07-23T05:21:21.514Z,23.45
2016-07-23T05:22:21.492Z,23.5
2016-07-23T05:23:21.484Z,23.52
2016-07-23T05:24:20.754Z,23.52
2016-07-23T05:25:21.457Z,23.53
2016-07-23T05:26:21.429Z,23.5
2016-07-23T05:27:21.434Z,23.53
2016-07-23T05:28:21.416Z,23.53
2016-07-23T05:29:21.387Z,23.57
2016-07-23T05:30:21.376Z,23.59
2016-07-23T05:31:21.364Z,23.62
2016-07-23T05:32:20.640Z,23.59
2016-07-23T05:33:21.336Z,23.56
2016-07-23T05:34:21.329Z,23.68
2016-07-23T05:35:20.596Z,23.56
2016-07-23T05:36:21.287Z,23.54
2016-07-23T05:37:21.265Z,23.6
2016-07-23T05:38:21.253Z,23.6
2016-07-23T05:39:21.255Z,23.71
2016-07-23T05:40:20.522Z,23.64
2016-07-23T05:41:19.796Z,23.68
2016-07-23T05:42:21.190Z,23.59
2016-07-23T05:43:21.187Z,23.6
2016-07-23T05:44:21.167Z,23.64
2016-07-23T05:45:21.147Z,23.68
2016-07-23T05:46:21.133Z,23.69
2016-07-23T05:47:21.133Z,23.62
2016-07-23T05:48:21.116Z,23.62
2016-07-23T05:49:21.099Z,23.62
2016-07-23T05:50:21.076Z,23.63
2016-07-23T05:51:21.059Z,23.62
2016-07-23T05:52:21.043Z,23.75
2016-07-23T05:53:21.033Z,23.77
2016-07-23T05:54:20.305Z,23.71
2016-07-23T05:55:21.004Z,23.69
2016-07-23T05:56:20.985Z,23.77
2016-07-23T05:57:20.973Z,23.69
2016-07-23T05:58:20.965Z,23.68
2016-07-23T05:59:20.951Z,23.68
2016-07-23T06:00:20.925Z,23.77
2016-07-23T06:01:20.920Z,23.74
2016-07-23T06:02:20.903Z,23.68
2016-07-23T06:03:20.887Z,23.64
2016-07-23T06:04:20.168Z,23.68
2016-07-23T06:05:20.858Z,23.68
2016-07-23T06:06:20.839Z,23.71
2016-07-23T06:07:20.823Z,23.82
2016-07-23T06:08:20.810Z,23.78
2016-07-23T06:09:20.797Z,23.77
2016-07-23T06:10:19.366Z,23.79
2016-07-23T06:11:20.057Z,23.77
2016-07-23T06:12:20.757Z,23.74
2016-07-23T06:13:20.752Z,23.84
2016-07-23T06:14:20.725Z,23.82
2016-07-23T06:15:20.707Z,23.87
2016-07-23T06:16:20.706Z,23.89
2016-07-23T06:17:20.680Z,23.84
2016-07-23T06:18:20.668Z,23.84
2016-07-23T06:19:20.642Z,23.84
2016-07-23T06:20:20.648Z,23.87
2016-07-23T06:21:20.624Z,23.82
2016-07-23T06:22:20.605Z,23.84
2016-07-23T06:23:20.586Z,23.87
2016-07-23T06:24:20.579Z,23.93
2016-07-23T06:25:19.849Z,23.82
2016-07-23T06:26:20.558Z,23.9
2016-07-23T06:27:20.531Z,23.87
2016-07-23T06:28:20.515Z,23.87
2016-07-23T06:29:20.502Z,23.89
2016-07-23T06:30:20.490Z,23.89
2016-07-23T06:31:20.470Z,23.93
2016-07-23T06:32:20.460Z,23.92
2016-07-23T06:33:20.444Z,23.93
2016-07-23T06:34:20.438Z,23.93
2016-07-23T06:35:19.714Z,23.94
2016-07-23T06:36:19.694Z,23.97
2016-07-23T06:37:19.673Z,23.87
2016-07-23T06:38:20.376Z,23.92
2016-07-23T06:39:20.359Z,23.97
2016-07-23T06:40:20.341Z,23.89
2016-07-23T06:41:19.628Z,23.97
2016-07-23T06:42:20.310Z,23.96
2016-07-23T06:43:20.304Z,23.97
2016-07-23T06:44:20.280Z,23.99
2016-07-23T06:45:20.268Z,23.96
2016-07-23T06:46:19.548Z,23.96
2016-07-23T06:47:20.238Z,23.96
2016-07-23T06:48:20.217Z,23.97
2016-07-23T06:49:20.214Z,24.02
2016-07-23T06:50:20.201Z,24.04
2016-07-23T06:51:20.193Z,24.02
2016-07-23T06:52:20.167Z,23.92
2016-07-23T06:53:20.168Z,24.06
2016-07-23T06:54:20.139Z,23.97
2016-07-23T06:55:20.116Z,24
2016-07-23T06:56:20.109Z,23.97
2016-07-23T06:57:20.086Z,23.96
2016-07-23T06:58:20.078Z,24.04
2016-07-23T06:59:20.054Z,24.06
2016-07-23T07:00:20.056Z,24.06
2016-07-23T07:01:20.036Z,24.04
2016-07-23T07:02:19.311Z,24.06
2016-07-23T07:03:19.296Z,24
2016-07-23T07:04:19.991Z,24.04
2016-07-23T07:05:19.267Z,24.09
2016-07-23T07:06:19.958Z,24.08
2016-07-23T07:07:19.940Z,24.04
2016-07-23T07:08:19.935Z,24.08
2016-07-23T07:09:19.922Z,24.09
2016-07-23T07:10:19.905Z,24.11
2016-07-23T07:11:19.893Z,24.06
2016-07-23T07:12:19.869Z,24.05
2016-07-23T07:13:19.859Z,24.09
2016-07-23T07:14:19.841Z,24.11
2016-07-23T07:15:19.129Z,24.09
2016-07-23T07:16:19.821Z,23.99
2016-07-23T07:17:19.103Z,24.06
2016-07-23T07:18:19.788Z,24.04
2016-07-23T07:19:19.779Z,24.04
2016-07-23T07:20:19.756Z,24.12
2016-07-23T07:21:19.747Z,24.06
2016-07-23T07:22:18.316Z,24.16
2016-07-23T07:23:19.712Z,24.15
2016-07-23T07:24:19.699Z,24.05
2016-07-23T07:25:19.682Z,24.14
2016-07-23T07:26:19.671Z,24.15
2016-07-23T07:27:18.943Z,24.15
2016-07-23T07:28:19.636Z,24.21
2016-07-23T07:29:19.618Z,24.11
2016-07-23T07:30:19.609Z,24.08
2016-07-23T07:31:19.600Z,24.12
2016-07-23T07:32:19.588Z,24.16
2016-07-23T07:33:19.570Z,24.09
2016-07-23T07:34:19.547Z,24.12
2016-07-23T07:35:19.537Z,24.15
2016-07-23T07:36:19.527Z,24.14
2016-07-23T07:37:19.725Z,24.12
2016-07-23T07:38:19.492Z,24.16
2016-07-23T07:39:19.483Z,24.11
2016-07-23T07:40:18.764Z,24.14
2016-07-23T07:41:19.452Z,24.12
2016-07-23T07:42:19.433Z,24.18
2016-07-23T07:43:19.428Z,24.12
2016-07-23T07:44:19.415Z,24.12
2016-07-23T07:45:19.395Z,24.15
2016-07-23T07:46:19.397Z,24.15
2016-07-23T07:47:19.366Z,24.18
2016-07-23T07:48:19.355Z,24.15
2016-07-23T07:49:19.343Z,24.14
2016-07-23T07:50:19.323Z,24.21
2016-07-23T07:51:18.595Z,24.24
2016-07-23T07:52:19.291Z,24.12
2016-07-23T07:53:19.283Z,24.19
2016-07-23T07:54:19.269Z,24.23
2016-07-23T07:55:19.247Z,24.29
2016-07-23T07:56:19.242Z,24.15
2016-07-23T07:57:19.221Z,24.23
2016-07-23T07:58:19.209Z,24.29
2016-07-23T07:59:18.485Z,24.26
2016-07-23T08:00:19.181Z,24.24
2016-07-23T08:01:19.163Z,24.19
2016-07-23T08:02:19.145Z,24.24
2016-07-23T08:03:19.150Z,24.19
2016-07-23T08:04:19.122Z,24.16
2016-07-23T08:05:19.104Z,24.24
2016-07-23T08:06:19.097Z,24.19
2016-07-23T08:07:19.128Z,24.23
2016-07-23T08:08:19.062Z,24.21
2016-07-23T08:09:19.048Z,24.27
2016-07-23T08:10:19.055Z,24.27
2016-07-23T08:11:19.022Z,24.21
2016-07-23T08:12:19.008Z,24.3
2016-07-23T08:13:18.988Z,24.3
2016-07-23T08:14:18.978Z,24.27
2016-07-23T08:15:18.258Z,24.26
2016-07-23T08:16:18.945Z,24.33
2016-07-23T08:17:18.929Z,24.26
2016-07-23T08:18:18.933Z,24.34
2016-07-23T08:19:18.911Z,24.23
2016-07-23T08:20:18.183Z,24.29
2016-07-23T08:21:18.882Z,24.26
2016-07-23T08:22:18.864Z,24.3
2016-07-23T08:23:18.147Z,24.27
2016-07-23T08:24:18.839Z,24.29
2016-07-23T08:25:18.816Z,24.37
2016-07-23T08:26:18.803Z,24.31
2016-07-23T08:27:18.078Z,24.33
2016-07-23T08:28:18.777Z,24.3
2016-07-23T08:29:18.758Z,24.29
2016-07-23T08:30:18.031Z,24.42
2016-07-23T08:31:18.738Z,24.3
2016-07-23T08:32:18.714Z,24.42
2016-07-23T08:33:17.989Z,24.42
2016-07-23T08:34:18.684Z,24.42
2016-07-23T08:35:17.958Z,24.34
2016-07-23T08:36:18.659Z,24.42
2016-07-23T08:37:18.647Z,24.39
2016-07-23T08:38:18.629Z,24.36
2016-07-23T08:39:18.615Z,24.37
2016-07-23T08:40:18.592Z,24.34
2016-07-23T08:41:18.583Z,24.36
2016-07-23T08:42:18.570Z,24.46
2016-07-23T08:43:18.556Z,24.37
2016-07-23T08:44:18.542Z,24.36
2016-07-23T08:45:18.531Z,24.36
2016-07-23T08:46:18.527Z,24.48
2016-07-23T08:47:17.782Z,24.42
2016-07-23T08:48:18.484Z,24.45
2016-07-23T08:49:18.473Z,24.36
2016-07-23T08:50:18.461Z,24.45
2016-07-23T08:51:18.441Z,24.41
2016-07-23T08:52:18.423Z,24.39
2016-07-23T08:53:18.422Z,24.45
2016-07-23T08:54:18.401Z,24.44
2016-07-23T08:55:18.392Z,24.46
2016-07-23T08:56:18.377Z,24.55
2016-07-23T08:57:17.646Z,24.48
2016-07-23T08:58:18.336Z,24.45
2016-07-23T08:59:18.331Z,24.53
2016-07-23T09:00:18.319Z,24.49
2016-07-23T09:01:18.302Z,24.55
2016-07-23T09:02:18.296Z,24.45
2016-07-23T09:03:18.277Z,24.59
2016-07-23T09:04:18.257Z,24.59
2016-07-23T09:05:18.246Z,24.56
2016-07-23T09:06:18.245Z,24.56
2016-07-23T09:07:18.220Z,24.6
2016-07-23T09:08:17.491Z,24.56
2016-07-23T09:09:18.192Z,24.51
2016-07-23T09:10:18.182Z,24.59
2016-07-23T09:11:18.171Z,24.61
2016-07-23T09:12:18.146Z,24.59
2016-07-23T09:13:18.136Z,24.66
2016-07-23T09:14:18.117Z,24.66
2016-07-23T09:15:18.106Z,24.61
2016-07-23T09:16:18.085Z,24.66
2016-07-23T09:17:18.066Z,24.67
2016-07-23T09:18:18.064Z,24.67
2016-07-23T09:19:18.047Z,24.68
2016-07-23T09:20:18.044Z,24.63
2016-07-23T09:21:18.029Z,24.71
2016-07-23T09:22:18.004Z,24.63
2016-07-23T09:23:17.987Z,24.68
2016-07-23T09:24:17.977Z,24.66
2016-07-23T09:25:17.968Z,24.7
2016-07-23T09:26:17.941Z,24.64
2016-07-23T09:27:17.931Z,24.66
2016-07-23T09:28:17.920Z,24.66
2016-07-23T09:29:17.906Z,24.66
2016-07-23T09:30:17.185Z,24.63
2016-07-23T09:31:17.876Z,24.67
2016-07-23T09:32:17.154Z,24.67
2016-07-23T09:33:17.152Z,24.68
2016-07-23T09:34:17.833Z,24.61
2016-07-23T09:35:17.823Z,24.63
2016-07-23T09:36:17.809Z,24.75
2016-07-23T09:37:17.790Z,24.68
2016-07-23T09:38:17.778Z,24.71
2016-07-23T09:39:17.762Z,24.6
2016-07-23T09:40:17.755Z,24.66
2016-07-23T09:41:17.733Z,24.66
2016-07-23T09:42:17.719Z,24.61
2016-07-23T09:43:17.715Z,24.71
2016-07-23T09:44:17.709Z,24.75
2016-07-23T09:45:17.683Z,24.67
2016-07-23T09:46:16.952Z,24.71
2016-07-23T09:47:17.657Z,24.7
2016-07-23T09:48:17.632Z,24.77
2016-07-23T09:49:17.622Z,24.79
2016-07-23T09:50:17.604Z,24.75
2016-07-23T09:51:17.598Z,24.79
2016-07-23T09:52:17.575Z,24.79
2016-07-23T09:53:17.565Z,24.79
2016-07-23T09:54:17.549Z,24.75
2016-07-23T09:55:17.529Z,24.8
2016-07-23T09:56:17.521Z,24.71
2016-07-23T09:57:17.504Z,24.79
2016-07-23T09:58:16.786Z,24.75
2016-07-23T09:59:17.476Z,24.8
2016-07-23T10:00:17.464Z,24.75
2016-07-23T10:01:17.464Z,24.8
2016-07-23T10:02:17.440Z,24.8
2016-07-23T10:03:16.724Z,24.71
2016-07-23T10:04:16.701Z,24.79
2016-07-23T10:05:17.387Z,24.71
2016-07-23T10:06:17.387Z,24.75
2016-07-23T10:07:16.658Z,24.77
2016-07-23T10:08:16.645Z,24.8
2016-07-23T10:09:17.334Z,24.8
2016-07-23T10:10:17.330Z,24.84
2016-07-23T10:11:17.315Z,24.86
2016-07-23T10:12:17.308Z,24.9
2016-07-23T10:13:17.290Z,24.82
2016-07-23T10:14:16.554Z,24.93
2016-07-23T10:15:17.262Z,24.86
2016-07-23T10:16:17.258Z,24.82
2016-07-23T10:17:17.251Z,24.87
2016-07-23T10:18:17.215Z,24.9
2016-07-23T10:19:17.197Z,24.86
2016-07-23T10:20:17.183Z,24.89
2016-07-23T10:21:17.176Z,24.93
2016-07-23T10:22:17.163Z,24.92
2016-07-23T10:23:17.159Z,24.86
2016-07-23T10:24:17.137Z,24.86
2016-07-23T10:25:17.111Z,24.92
2016-07-23T10:26:17.108Z,24.9
2016-07-23T10:27:17.149Z,24.9
2016-07-23T10:28:17.085Z,24.89
2016-07-23T10:29:17.066Z,24.92
2016-07-23T10:30:17.045Z,24.92
2016-07-23T10:31:17.030Z,24.84
2016-07-23T10:32:17.014Z,24.89
2016-07-23T10:33:17.008Z,24.89
2016-07-23T10:34:16.992Z,24.79
2016-07-23T10:35:16.265Z,24.77
2016-07-23T10:36:16.956Z,24.68
2016-07-23T10:37:16.946Z,24.63
2016-07-23T10:38:16.943Z,24.74
2016-07-23T10:39:16.920Z,24.77
2016-07-23T10:40:16.913Z,24.77
2016-07-23T10:41:16.888Z,24.63
2016-07-23T10:42:16.875Z,24.68
2016-07-23T10:43:16.859Z,24.64
2016-07-23T10:44:16.141Z,24.7
2016-07-23T10:45:16.129Z,24.7
2016-07-23T10:46:16.817Z,24.68
2016-07-23T10:47:16.813Z,24.6
2016-07-23T10:48:16.798Z,24.64
2016-07-23T10:49:16.786Z,24.64
2016-07-23T10:50:16.061Z,24.67
2016-07-23T10:51:16.758Z,24.59
2016-07-23T10:52:16.732Z,24.63
2016-07-23T10:53:16.728Z,24.79
2016-07-23T10:54:16.717Z,24.77
2016-07-23T10:55:16.694Z,24.74
2016-07-23T10:56:16.688Z,24.79
2016-07-23T10:57:16.670Z,24.75
2016-07-23T10:58:16.646Z,24.82
2016-07-23T10:59:16.646Z,24.82
2016-07-23T11:00:16.621Z,24.82
2016-07-23T11:01:16.617Z,24.82
2016-07-23T11:02:16.602Z,24.86
2016-07-23T11:03:16.575Z,24.9
2016-07-23T11:04:16.559Z,24.83
2016-07-23T11:05:15.840Z,24.86
2016-07-23T11:06:16.541Z,24.86
2016-07-23T11:07:16.520Z,24.8
2016-07-23T11:08:16.520Z,24.84
2016-07-23T11:09:16.495Z,24.82
2016-07-23T11:10:15.782Z,24.8
2016-07-23T11:11:16.474Z,24.84
2016-07-23T11:12:15.751Z,24.75
2016-07-23T11:13:16.445Z,24.74
2016-07-23T11:14:16.423Z,24.82
2016-07-23T11:15:16.416Z,24.75
2016-07-23T11:16:16.411Z,24.71
2016-07-23T11:17:16.380Z,24.75
2016-07-23T11:18:16.371Z,24.83
2016-07-23T11:19:15.652Z,24.77
2016-07-23T11:20:16.344Z,24.82
2016-07-23T11:21:15.628Z,24.8
2016-07-23T11:22:16.318Z,24.82
2016-07-23T11:23:16.297Z,24.64
2016-07-23T11:24:16.294Z,24.75
2016-07-23T11:25:15.561Z,24.61
2016-07-23T11:26:15.549Z,24.7
2016-07-23T11:27:16.292Z,24.67
2016-07-23T11:28:16.225Z,24.61
2016-07-23T11:29:16.225Z,24.71
2016-07-23T11:30:16.203Z,24.74
2016-07-23T11:31:16.183Z,24.68
2016-07-23T11:32:16.176Z,24.71
2016-07-23T11:33:15.450Z,24.66
2016-07-23T11:34:16.138Z,24.6
2016-07-23T11:35:16.140Z,24.67
2016-07-23T11:36:16.112Z,24.63
2016-07-23T11:37:16.097Z,24.67
2016-07-23T11:38:15.380Z,24.63
2016-07-23T11:39:16.067Z,24.71
2016-07-23T11:40:16.051Z,24.6
2016-07-23T11:41:16.041Z,24.61
2016-07-23T11:42:16.035Z,24.64
2016-07-23T11:43:16.018Z,24.68
2016-07-23T11:44:15.291Z,24.71
2016-07-23T11:45:15.984Z,24.64
2016-07-23T11:46:15.965Z,24.64
2016-07-23T11:47:15.957Z,24.64
2016-07-23T11:48:15.940Z,24.63
2016-07-23T11:49:15.920Z,24.66
2016-07-23T11:50:15.910Z,24.63
2016-07-23T11:51:15.903Z,24.64
2016-07-23T11:52:15.890Z,24.68
2016-07-23T11:53:15.870Z,24.61
2016-07-23T11:54:15.850Z,24.71
2016-07-23T11:55:15.837Z,24.67
2016-07-23T11:56:15.819Z,24.71
2016-07-23T11:57:15.108Z,24.66
2016-07-23T11:58:15.785Z,24.7
2016-07-23T11:59:15.783Z,24.68
2016-07-23T12:00:15.763Z,24.67
2016-07-23T12:01:15.045Z,24.7
2016-07-23T12:02:15.743Z,24.71
2016-07-23T12:03:15.717Z,24.67
2016-07-23T12:04:15.706Z,24.67
2016-07-23T12:05:15.687Z,24.71
2016-07-23T12:06:15.687Z,24.67
2016-07-23T12:07:15.669Z,24.64
2016-07-23T12:08:15.647Z,24.66
2016-07-23T12:09:15.639Z,24.67
2016-07-23T12:10:14.923Z,24.67
2016-07-23T12:11:15.600Z,24.66
2016-07-23T12:12:15.590Z,24.67
2016-07-23T12:13:15.573Z,24.68
2016-07-23T12:14:15.557Z,24.59
2016-07-23T12:15:15.545Z,24.64
2016-07-23T12:16:15.535Z,24.67
2016-07-23T12:17:15.532Z,24.61
2016-07-23T12:18:15.503Z,24.68
2016-07-23T12:19:15.492Z,24.7
2016-07-23T12:20:15.480Z,24.71
2016-07-23T12:21:15.467Z,24.7
2016-07-23T12:22:15.454Z,24.68
2016-07-23T12:23:15.426Z,24.71
2016-07-23T12:24:15.423Z,24.6
2016-07-23T12:26:15.391Z,24.82
2016-07-23T12:27:15.373Z,24.75
2016-07-23T12:28:15.363Z,24.77
2016-07-23T12:29:15.348Z,24.8
2016-07-23T12:30:15.331Z,24.75
2016-07-23T12:31:15.314Z,24.79
2016-07-23T12:32:14.595Z,24.74
2016-07-23T12:33:14.584Z,24.79
2016-07-23T12:34:15.272Z,24.75
2016-07-23T12:35:15.283Z,24.77
2016-07-23T12:36:15.245Z,24.75
2016-07-23T12:37:15.233Z,24.77
2016-07-23T12:38:15.218Z,24.77
2016-07-23T12:39:15.202Z,24.75
2016-07-23T12:40:15.190Z,24.77
2016-07-23T12:41:15.177Z,24.71
2016-07-23T12:42:15.152Z,24.8
2016-07-23T12:43:15.148Z,24.8
2016-07-23T12:44:14.429Z,24.74
2016-07-23T12:45:15.118Z,24.84
2016-07-23T12:46:15.095Z,24.77
2016-07-23T12:47:14.380Z,24.7
2016-07-23T12:48:15.075Z,24.67
2016-07-23T12:49:15.053Z,24.67
2016-07-23T12:50:14.334Z,24.63
2016-07-23T12:51:15.035Z,24.79
2016-07-23T12:52:14.302Z,24.79
2016-07-23T12:53:15.002Z,24.74
2016-07-23T12:54:14.988Z,24.68
2016-07-23T12:55:14.964Z,24.67